Watford City, North Dakota
Current Conditions -  °F | °C
As of 10:52 PM on Saturday 25 Oct 2014 (Local Time) from KISN Reporting Station
Clear Clear  
Wind Chill: 54°   Ceiling: Unl
Heat Index: 54°   Visibility: 10mi
Dew Point: 31°   Wind: 12mph
Humidity: 41%   Direction: 130°SE
Pressure: 29.8"   Gusts: NA
Location:  47.8°N, 103.28°W
Report Text: KISN 260352Z AUTO 13010KT 10SM CLR 12/M01 A2980 RMK AO2 SLP096 T01221006
Loading
Personal Weather Stations






























Interactive Weather Map
Tropical Storm Tracking
New forecast layout! Learn more

10-Day Weather Forecast

Advertisements
Track Severe Weather on mobile